< < Back
Terminal Aerodrome Forecast


Current Version              Previous Versions:   1  2  3  4  5  6  7  8  9  

Terminal Aerodrome Forecast

511
FTUS44 KOHX 242300
TAFCSV
TAF
KCSV 242333Z 2500/2524 23005KT P6SM SKC
     FM250700 00000KT 4SM BR BKN200
     FM251500 19008G16KT P6SM SCT025 OVC200
     FM252200 19008G16KT 4SM -RA BR OVC025=



Latest METAR

096
SAUS70 KWBC 251600 RRD
MTRCSV
METAR KCSV 251553Z AUTO 18009G15KT 10SM CLR 06/M01 A2981 RMK AO2 SLP100
T00611006


USA.gov is the U.S. government's official web portal to all federal, state and local government web resources and services.